Time;durP1;ratioP1;P1;durP2;ratioP2;P2;SDS_P1;SDS_P2;PMS_P1;PMS_P2;Temp;Humidity;BMP_temperature;BMP_pressure;BME280_temperature;BME280_humidity;BME280_pressure;Samples;Min_cycle;Max_cycle;Signal;HPM_P1;HPM_P2
2022/07/18 00:01:58;;;;;;;6.65;2.15;;;21.80;98.60;;;;;;5115039;28;20457;-65
2022/07/18 00:04:25;;;;;;;11.35;3.03;;;21.70;99.20;;;;;;5113060;28;20467;-66
2022/07/18 00:06:51;;;;;;;8.75;2.33;;;21.60;99.80;;;;;;5114586;28;20536;-65
2022/07/18 00:09:17;;;;;;;10.32;2.55;;;21.60;99.80;;;;;;5114195;28;20035;-65
2022/07/18 00:11:44;;;;;;;3.20;2.00;;;21.60;99.30;;;;;;5114293;28;20491;-65
2022/07/18 00:14:10;;;;;;;10.07;3.20;;;21.40;99.40;;;;;;5113247;28;20022;-65
2022/07/18 00:16:37;;;;;;;9.23;2.40;;;21.20;99.50;;;;;;5113161;28;20419;-66
2022/07/18 00:19:03;;;;;;;5.50;2.50;;;21.40;99.40;;;;;;5114204;28;20028;-65
2022/07/18 00:21:29;;;;;;;4.38;2.22;;;21.50;99.20;;;;;;5114223;28;20028;-66
2022/07/18 00:23:55;;;;;;;7.63;2.72;;;21.20;99.60;;;;;;5114461;28;20016;-65
2022/07/18 00:26:20;;;;;;;3.67;2.15;;;21.40;99.90;;;;;;5114259;28;20027;-65
2022/07/18 00:28:46;;;;;;;7.10;2.42;;;21.30;99.80;;;;;;5113756;28;20494;-65
2022/07/18 00:31:12;;;;;;;12.38;2.45;;;21.40;99.70;;;;;;5113944;28;20035;-66
2022/07/18 00:33:38;;;;;;;6.53;2.28;;;21.60;98.80;;;;;;5113990;28;20055;-66
2022/07/18 00:36:04;;;;;;;6.78;2.10;;;21.50;99.30;;;;;;5113693;28;20031;-73
2022/07/18 00:38:30;;;;;;;8.95;2.30;;;21.50;99.30;;;;;;5113868;28;20039;-66
2022/07/18 00:40:55;;;;;;;6.15;2.08;;;21.40;99.80;;;;;;5113981;28;20376;-65
2022/07/18 00:43:21;;;;;;;5.10;2.13;;;21.40;99.90;;;;;;5112191;28;20032;-66
2022/07/18 00:45:49;;;;;;;9.27;2.42;;;21.40;99.40;;;;;;5113813;28;20034;-65
2022/07/18 00:48:15;;;;;;;6.50;1.92;;;21.50;98.90;;;;;;5113594;28;20031;-66
2022/07/18 00:50:42;;;;;;;4.78;2.22;;;21.30;98.70;;;;;;5113815;28;20096;-66
2022/07/18 00:53:10;;;;;;;4.70;2.58;;;21.40;98.70;;;;;;5113639;28;20051;-65
2022/07/18 00:55:38;;;;;;;3.72;1.88;;;21.40;98.60;;;;;;5113466;28;20472;-65
2022/07/18 00:58:04;;;;;;;3.92;2.30;;;21.10;99.40;;;;;;5113384;28;20476;-65
2022/07/18 01:03:14;;;;;;;3.67;2.00;;;21.00;99.70;;;;;;5113272;28;20032;-65
2022/07/18 01:05:40;;;;;;;5.00;2.60;;;21.00;99.50;;;;;;5113394;28;20039;-66
2022/07/18 01:08:06;;;;;;;4.35;2.10;;;20.80;99.90;;;;;;5113234;28;20401;-65
2022/07/18 01:10:32;;;;;;;5.43;1.75;;;20.80;99.90;;;;;;5113059;28;20495;-65
2022/07/18 01:12:58;;;;;;;6.68;2.50;;;20.70;99.90;;;;;;5113492;28;20016;-65
2022/07/18 01:15:24;;;;;;;8.13;2.40;;;20.70;99.90;;;;;;5104052;28;20020;-65
2022/07/18 01:17:49;;;;;;;10.38;2.50;;;20.70;99.90;;;;;;5113999;28;20520;-65
2022/07/18 01:20:15;;;;;;;5.38;2.33;;;20.50;99.90;;;;;;5112774;28;20038;-66
2022/07/18 01:22:41;;;;;;;3.83;1.63;;;20.80;99.90;;;;;;5113426;28;20383;-67
2022/07/18 01:25:09;;;;;;;3.47;1.90;;;20.80;99.90;;;;;;5113471;28;20024;-66
2022/07/18 01:27:35;;;;;;;8.40;2.30;;;20.70;99.90;;;;;;5117959;28;20035;-65
2022/07/18 01:30:03;;;;;;;5.72;1.98;;;20.70;99.90;;;;;;5117685;28;20073;-66
2022/07/18 01:32:28;;;;;;;6.18;2.47;;;20.90;99.60;;;;;;5117210;28;20031;-65
2022/07/18 01:34:54;;;;;;;6.05;1.90;;;20.80;99.30;;;;;;5117512;28;20032;-66
2022/07/18 01:37:20;;;;;;;7.18;2.63;;;20.70;99.40;;;;;;5097205;28;20028;-65
2022/07/18 01:39:46;;;;;;;7.97;2.42;;;20.50;99.90;;;;;;5116908;28;20047;-67
2022/07/18 01:42:13;;;;;;;6.90;2.20;;;20.60;99.90;;;;;;5117104;28;20020;-66
2022/07/18 01:44:39;;;;;;;6.15;2.20;;;20.70;99.90;;;;;;5117468;28;20031;-65
2022/07/18 01:47:08;;;;;;;4.55;2.08;;;20.90;99.90;;;;;;5116934;28;20391;-66
2022/07/18 01:49:34;;;;;;;3.67;2.17;;;20.80;99.50;;;;;;5117388;28;20120;-65
2022/07/18 01:52:00;;;;;;;3.65;1.85;;;20.60;99.50;;;;;;5116907;28;20066;-65
2022/07/18 01:54:29;;;;;;;5.97;2.33;;;20.50;99.70;;;;;;5116907;28;20027;-65
2022/07/18 01:56:56;;;;;;;4.32;2.30;;;20.00;99.90;;;;;;5116718;28;20016;-65
2022/07/18 01:59:23;;;;;;;9.82;2.47;;;19.50;99.90;;;;;;5117061;28;20119;-66
2022/07/18 02:01:49;;;;;;;6.47;2.40;;;19.60;99.90;;;;;;5117277;28;20024;-66
2022/07/18 02:04:14;;;;;;;5.63;1.80;;;20.00;99.90;;;;;;5116809;28;20136;-65
2022/07/18 02:06:40;;;;;;;5.47;2.90;;;20.20;99.90;;;;;;5117068;28;20032;-66
2022/07/18 02:09:07;;;;;;;5.80;1.95;;;20.20;99.90;;;;;;5116293;28;20122;-66
2022/07/18 02:11:34;;;;;;;3.45;2.05;;;20.10;99.90;;;;;;5116542;28;20035;-66
2022/07/18 02:14:00;;;;;;;7.93;2.17;;;19.90;99.90;;;;;;5116647;28;20050;-66
2022/07/18 02:16:26;;;;;;;8.73;2.38;;;20.00;99.90;;;;;;5116336;28;20023;-65
2022/07/18 02:18:52;;;;;;;3.63;2.00;;;20.10;99.90;;;;;;5116702;28;20099;-67
2022/07/18 02:21:17;;;;;;;7.07;2.00;;;20.20;99.90;;;;;;5116308;28;20110;-65
2022/07/18 02:23:44;;;;;;;7.03;2.13;;;19.90;99.90;;;;;;5116148;28;20052;-65
2022/07/18 02:26:11;;;;;;;6.03;2.60;;;19.70;99.90;;;;;;5116376;28;20028;-69
2022/07/18 02:28:37;;;;;;;6.43;2.17;;;19.50;99.90;;;;;;5116384;28;20020;-65
2022/07/18 02:31:04;;;;;;;8.88;2.13;;;19.60;99.90;;;;;;5116145;27;20043;-65
2022/07/18 02:33:30;;;;;;;7.70;2.20;;;19.80;99.90;;;;;;5114698;28;20016;-65
2022/07/18 02:35:56;;;;;;;7.50;2.10;;;19.60;99.90;;;;;;5116373;28;20092;-66
2022/07/18 02:38:22;;;;;;;6.32;2.28;;;19.60;99.90;;;;;;5115038;28;20166;-65
2022/07/18 02:40:48;;;;;;;11.10;2.63;;;19.80;99.90;;;;;;5116657;28;20076;-66
2022/07/18 02:43:15;;;;;;;11.20;2.38;;;19.90;99.90;;;;;;5115755;28;20020;-65
2022/07/18 02:45:41;;;;;;;5.88;2.38;;;19.70;99.90;;;;;;5116022;27;20417;-66
2022/07/18 02:48:06;;;;;;;4.68;2.58;;;19.60;99.90;;;;;;5114568;28;20020;-65
2022/07/18 02:50:32;;;;;;;6.95;2.40;;;19.60;99.90;;;;;;5116047;28;20117;-66
2022/07/18 02:52:58;;;;;;;8.30;2.42;;;19.50;99.90;;;;;;5115697;28;20028;-65
2022/07/18 02:55:24;;;;;;;10.98;3.38;;;19.60;99.90;;;;;;5115735;28;20035;-66
2022/07/18 02:57:50;;;;;;;7.03;2.33;;;19.40;99.90;;;;;;5116152;28;20038;-66
2022/07/18 03:00:16;;;;;;;4.57;1.85;;;19.20;99.90;;;;;;5115722;28;20073;-67
2022/07/18 03:02:44;;;;;;;5.35;2.40;;;19.30;99.90;;;;;;5115652;28;20387;-66
2022/07/18 03:05:09;;;;;;;8.07;2.42;;;19.20;99.90;;;;;;5116270;28;20041;-65
2022/07/18 03:07:35;;;;;;;7.38;1.90;;;19.20;99.90;;;;;;5115420;28;20032;-65
2022/07/18 03:10:01;;;;;;;4.53;2.40;;;19.20;99.90;;;;;;5115611;27;20399;-65
2022/07/18 03:12:27;;;;;;;4.03;2.17;;;19.00;99.90;;;;;;5115257;28;20406;-66
2022/07/18 03:14:53;;;;;;;9.93;2.30;;;18.80;99.90;;;;;;5115551;28;20027;-65
2022/07/18 03:17:19;;;;;;;8.20;2.53;;;19.10;99.90;;;;;;5115444;28;20023;-65
2022/07/18 03:19:44;;;;;;;11.75;2.90;;;19.30;99.90;;;;;;5115352;28;20048;-65
2022/07/18 03:22:10;;;;;;;3.60;2.20;;;19.30;99.90;;;;;;5100781;28;20032;-65
2022/07/18 03:24:36;;;;;;;10.48;2.63;;;19.30;99.90;;;;;;5115226;28;20035;-65
2022/07/18 03:27:02;;;;;;;7.60;2.45;;;19.30;99.90;;;;;;5114280;28;20034;-65
2022/07/18 03:29:27;;;;;;;4.22;2.17;;;19.20;99.90;;;;;;5115970;28;20524;-66
2022/07/18 03:31:53;;;;;;;5.10;2.30;;;19.10;99.90;;;;;;5115906;28;20024;-65
2022/07/18 03:34:19;;;;;;;7.60;2.90;;;19.10;99.90;;;;;;5115209;28;20024;-65
2022/07/18 03:36:45;;;;;;;17.65;3.20;;;19.00;99.90;;;;;;5114790;27;20023;-65
2022/07/18 03:39:12;;;;;;;8.48;2.38;;;19.00;99.90;;;;;;5115298;28;20032;-65
2022/07/18 03:41:38;;;;;;;14.65;2.58;;;18.80;99.90;;;;;;5106564;28;20134;-65
2022/07/18 03:44:05;;;;;;;6.32;2.45;;;18.80;99.90;;;;;;5113629;28;20558;-66
2022/07/18 03:46:30;;;;;;;7.78;2.53;;;18.70;99.90;;;;;;5114922;28;20028;-66
2022/07/18 03:48:56;;;;;;;6.53;2.47;;;18.70;99.90;;;;;;5113596;28;20020;-66
2022/07/18 03:51:22;;;;;;;8.35;2.65;;;18.70;99.90;;;;;;5114551;28;20459;-66
2022/07/18 03:53:48;;;;;;;8.30;2.58;;;18.80;99.90;;;;;;5114887;28;20024;-65
2022/07/18 03:56:14;;;;;;;10.88;2.70;;;18.80;99.90;;;;;;5115082;28;20083;-65
2022/07/18 03:58:40;;;;;;;13.30;3.45;;;18.70;99.90;;;;;;5114133;28;20344;-65
2022/07/18 04:01:06;;;;;;;6.63;3.08;;;18.90;99.90;;;;;;5114813;28;20039;-65
2022/07/18 04:03:31;;;;;;;6.18;2.75;;;18.80;99.90;;;;;;5114073;28;20035;-65
2022/07/18 04:05:57;;;;;;;10.85;2.65;;;18.40;99.90;;;;;;5113701;28;20012;-66
2022/07/18 04:08:23;;;;;;;11.13;2.78;;;18.40;99.90;;;;;;5114009;28;20047;-65
2022/07/18 04:10:49;;;;;;;5.88;2.65;;;18.60;99.90;;;;;;5114105;28;20023;-67
2022/07/18 04:13:15;;;;;;;8.13;2.97;;;18.80;99.90;;;;;;5114036;28;20433;-65
2022/07/18 04:15:41;;;;;;;10.65;3.03;;;18.70;99.90;;;;;;5114364;28;20023;-66
2022/07/18 04:18:08;;;;;;;6.68;2.20;;;18.70;99.90;;;;;;5114400;28;20027;-66
2022/07/18 04:20:34;;;;;;;8.32;2.55;;;18.80;99.90;;;;;;5113708;28;20038;-65
2022/07/18 04:23:04;;;;;;;15.45;3.78;;;18.80;99.90;;;;;;5114142;28;20039;-67
2022/07/18 04:25:35;;;;;;;8.68;2.53;;;18.90;99.90;;;;;;5114145;28;20028;-65
2022/07/18 04:28:01;;;;;;;8.20;2.50;;;19.00;99.90;;;;;;5114108;28;20043;-66
2022/07/18 04:30:28;;;;;;;8.57;2.58;;;19.10;99.90;;;;;;5113989;28;20293;-70
2022/07/18 04:32:54;;;;;;;10.30;3.22;;;19.30;99.90;;;;;;5114003;28;20028;-66
2022/07/18 04:35:22;;;;;;;9.15;2.85;;;19.20;99.90;;;;;;5113638;28;20032;-65
2022/07/18 04:37:48;;;;;;;12.23;2.88;;;19.40;99.90;;;;;;5113880;28;20020;-66
2022/07/18 04:40:14;;;;;;;7.18;2.85;;;19.30;99.90;;;;;;5113962;28;20032;-66
2022/07/18 04:42:40;;;;;;;7.07;2.47;;;19.10;99.90;;;;;;5114129;28;20439;-65
2022/07/18 04:45:07;;;;;;;9.52;3.00;;;19.20;99.90;;;;;;5113678;28;20057;-66
2022/07/18 04:47:33;;;;;;;10.38;2.58;;;19.30;99.90;;;;;;5113836;28;20019;-65
2022/07/18 04:50:00;;;;;;;10.25;3.13;;;19.30;99.90;;;;;;5113078;28;20087;-66
2022/07/18 04:52:26;;;;;;;8.98;3.10;;;19.40;99.90;;;;;;5114028;28;20379;-68
2022/07/18 04:54:51;;;;;;;10.80;3.20;;;19.50;99.90;;;;;;5113444;28;20023;-65
2022/07/18 04:57:18;;;;;;;12.18;2.95;;;19.50;99.90;;;;;;5113980;28;20031;-67
2022/07/18 04:59:45;;;;;;;9.35;2.60;;;19.50;99.90;;;;;;5106993;28;20032;-65
2022/07/18 05:02:11;;;;;;;8.00;2.92;;;19.50;99.90;;;;;;5097328;28;20064;-65
2022/07/18 05:04:38;;;;;;;12.13;3.40;;;19.40;99.90;;;;;;5113336;28;20028;-65
2022/07/18 05:07:06;;;;;;;7.68;2.70;;;19.60;99.90;;;;;;5113274;28;20058;-66
2022/07/18 05:09:32;;;;;;;9.48;2.45;;;19.40;99.90;;;;;;5113223;28;20045;-65
2022/07/18 05:11:59;;;;;;;9.63;3.13;;;19.50;99.90;;;;;;5113305;28;20056;-66
2022/07/18 05:14:25;;;;;;;14.00;2.83;;;19.80;99.80;;;;;;5113507;28;20016;-65
2022/07/18 05:16:51;;;;;;;16.45;2.92;;;20.00;99.50;;;;;;5112025;28;20089;-65
2022/07/18 05:19:16;;;;;;;12.60;2.92;;;20.00;99.10;;;;;;5113124;28;20030;-65
2022/07/18 05:21:43;;;;;;;11.05;3.03;;;20.00;99.60;;;;;;5113254;28;20032;-65
2022/07/18 05:24:09;;;;;;;7.63;2.72;;;20.10;99.90;;;;;;5113028;28;20019;-65
2022/07/18 05:26:35;;;;;;;11.00;3.42;;;20.20;99.90;;;;;;5113108;28;20028;-65
2022/07/18 05:29:01;;;;;;;10.63;2.60;;;20.30;99.90;;;;;;5113499;28;20016;-65
2022/07/18 05:31:27;;;;;;;11.98;3.10;;;20.50;99.90;;;;;;5112742;28;20036;-66
2022/07/18 05:33:52;;;;;;;7.65;2.83;;;20.60;99.90;;;;;;5113227;28;20020;-65
2022/07/18 05:36:18;;;;;;;11.20;3.17;;;20.70;99.90;;;;;;5113191;28;20023;-65
2022/07/18 05:38:44;;;;;;;11.13;3.13;;;20.70;99.50;;;;;;5111973;28;20016;-65
2022/07/18 05:41:10;;;;;;;13.38;2.92;;;20.80;99.80;;;;;;5099637;28;20360;-65
2022/07/18 05:43:35;;;;;;;11.32;3.00;;;20.80;99.90;;;;;;5093752;28;20468;-67
2022/07/18 05:46:01;;;;;;;10.35;3.38;;;20.90;98.40;;;;;;5096294;28;20468;-67
2022/07/18 05:48:27;;;;;;;10.30;3.28;;;20.40;99.10;;;;;;5092494;28;20028;-67
2022/07/18 05:50:53;;;;;;;18.63;2.95;;;20.60;98.50;;;;;;5093990;28;20032;-67
2022/07/18 05:53:18;;;;;;;15.95;3.50;;;20.70;98.70;;;;;;5092354;28;20028;-67
2022/07/18 05:55:44;;;;;;;14.73;3.33;;;20.40;98.70;;;;;;5105840;28;20020;-68
2022/07/18 05:58:10;;;;;;;23.90;3.55;;;20.40;98.40;;;;;;5104439;28;20020;-71
2022/07/18 06:00:36;;;;;;;20.65;3.85;;;20.50;98.80;;;;;;5083704;28;20036;-67
2022/07/18 06:03:02;;;;;;;18.33;3.25;;;20.60;99.20;;;;;;5089656;28;20020;-67
2022/07/18 06:05:28;;;;;;;13.65;4.03;;;20.70;99.20;;;;;;5091524;28;20034;-68
2022/07/18 06:07:55;;;;;;;11.70;3.60;;;20.90;98.10;;;;;;5099298;28;20049;-67
2022/07/18 06:10:21;;;;;;;11.45;3.30;;;21.20;98.10;;;;;;5096469;28;20036;-67
2022/07/18 06:12:47;;;;;;;23.60;3.60;;;21.10;99.30;;;;;;5094279;28;20020;-67
2022/07/18 06:15:14;;;;;;;17.60;3.38;;;21.20;98.90;;;;;;5095803;28;20028;-67
2022/07/18 06:17:40;;;;;;;13.75;3.85;;;21.30;99.00;;;;;;5096575;28;20027;-66
2022/07/18 06:20:07;;;;;;;19.85;3.33;;;21.50;98.60;;;;;;5086263;28;20021;-67
2022/07/18 06:22:34;;;;;;;20.20;4.82;;;21.40;98.30;;;;;;5084908;28;20063;-76
2022/07/18 06:25:01;;;;;;;27.75;3.65;;;21.30;97.80;;;;;;5088945;28;20024;-68
2022/07/18 06:27:27;;;;;;;30.88;3.63;;;21.30;97.70;;;;;;5089744;28;20038;-70
2022/07/18 06:29:52;;;;;;;25.88;3.70;;;21.30;97.70;;;;;;5096832;28;20036;-78
2022/07/18 06:32:18;;;;;;;21.08;4.05;;;21.40;97.10;;;;;;5082240;28;20028;-73
2022/07/18 06:34:44;;;;;;;16.02;3.63;;;21.50;97.40;;;;;;5083690;28;20138;-67
2022/07/18 06:37:10;;;;;;;18.70;4.00;;;21.60;97.00;;;;;;5087367;28;20055;-67
2022/07/18 06:39:36;;;;;;;12.07;3.22;;;21.70;97.00;;;;;;5090057;28;20020;-67
2022/07/18 06:42:02;;;;;;;11.20;3.80;;;21.80;97.00;;;;;;5091872;28;20036;-68
2022/07/18 06:44:27;;;;;;;13.90;2.88;;;21.80;97.40;;;;;;5088067;28;20055;-68
2022/07/18 06:46:53;;;;;;;12.10;3.88;;;22.10;97.10;;;;;;5094258;28;20114;-71
2022/07/18 06:49:20;;;;;;;18.90;3.80;;;22.10;97.00;;;;;;5097489;28;20047;-69
2022/07/18 06:51:46;;;;;;;27.50;3.80;;;22.20;96.30;;;;;;5090290;28;20475;-71
2022/07/18 06:54:11;;;;;;;27.55;4.05;;;22.30;96.30;;;;;;5106329;28;20063;-68
2022/07/18 06:56:37;;;;;;;12.30;3.75;;;22.40;96.00;;;;;;5106730;28;20042;-68
2022/07/18 06:59:03;;;;;;;13.55;3.65;;;22.60;96.40;;;;;;5098481;28;20023;-69
2022/07/18 07:01:29;;;;;;;13.88;3.33;;;22.70;96.20;;;;;;5096706;28;20051;-73
2022/07/18 07:03:54;;;;;;;17.58;3.72;;;22.90;95.90;;;;;;5096145;28;20357;-69
2022/07/18 07:06:20;;;;;;;18.15;3.88;;;23.00;96.10;;;;;;5109398;28;20447;-68
2022/07/18 07:08:46;;;;;;;10.57;3.58;;;23.00;95.50;;;;;;5100592;28;20120;-68
2022/07/18 07:11:12;;;;;;;14.10;3.70;;;22.80;96.00;;;;;;5097564;28;20040;-68
2022/07/18 07:13:38;;;;;;;8.30;3.25;;;22.90;94.60;;;;;;5095142;28;20024;-67
2022/07/18 07:16:04;;;;;;;13.65;4.00;;;23.20;94.50;;;;;;5109809;28;20122;-68
2022/07/18 07:18:31;;;;;;;13.27;4.10;;;23.00;94.10;;;;;;5100947;28;20023;-68
2022/07/18 07:20:57;;;;;;;12.10;3.50;;;23.10;94.90;;;;;;5093384;28;20376;-68
2022/07/18 07:23:23;;;;;;;12.18;3.90;;;23.00;94.50;;;;;;5101850;28;20028;-68
2022/07/18 07:25:48;;;;;;;14.77;3.78;;;23.00;94.50;;;;;;5115592;28;20035;-68
2022/07/18 07:28:14;;;;;;;13.18;3.67;;;23.00;95.30;;;;;;5114023;28;20020;-68
2022/07/18 07:30:41;;;;;;;11.50;4.30;;;23.20;94.70;;;;;;5115385;28;20039;-68
2022/07/18 07:33:08;;;;;;;10.32;3.55;;;23.20;94.80;;;;;;5114717;28;20043;-67
2022/07/18 07:35:34;;;;;;;15.45;4.20;;;23.50;94.40;;;;;;5115306;28;20028;-68
2022/07/18 07:38:00;;;;;;;14.30;3.88;;;23.60;95.00;;;;;;5115142;27;20031;-68
2022/07/18 07:40:28;;;;;;;14.00;3.60;;;23.60;94.40;;;;;;5115155;28;20031;-68
2022/07/18 07:43:14;;;;;;;11.48;4.00;;;24.00;94.10;;;;;;5114623;28;20034;-68
2022/07/18 07:45:40;;;;;;;14.90;3.45;;;24.00;94.60;;;;;;5115053;28;20031;-67
2022/07/18 07:48:07;;;;;;;21.02;5.15;;;23.70;94.60;;;;;;5114618;28;20024;-68
2022/07/18 07:50:33;;;;;;;20.48;3.70;;;24.10;94.90;;;;;;5114828;28;20133;-68
2022/07/18 07:53:00;;;;;;;13.63;3.20;;;24.20;94.60;;;;;;5115032;28;20102;-67
2022/07/18 07:55:26;;;;;;;7.35;3.03;;;24.00;94.80;;;;;;5103899;28;20028;-67
2022/07/18 07:57:52;;;;;;;8.05;3.00;;;24.30;95.00;;;;;;5104267;28;20410;-67
2022/07/18 08:00:18;;;;;;;9.60;4.00;;;24.50;95.00;;;;;;5096499;28;20020;-67
2022/07/18 08:03:01;;;;;;;10.40;3.60;;;24.40;94.60;;;;;;5094087;28;20035;-65
2022/07/18 08:05:32;;;;;;;11.20;3.80;;;24.60;94.10;;;;;;5105645;28;20031;-66
2022/07/18 08:07:59;;;;;;;11.20;3.72;;;24.90;93.80;;;;;;5105962;28;20379;-66
2022/07/18 08:10:25;;;;;;;11.07;2.70;;;25.00;94.00;;;;;;5098701;28;20040;-66
2022/07/18 08:12:52;;;;;;;15.40;3.17;;;25.00;93.70;;;;;;5094961;28;20057;-70
2022/07/18 08:15:18;;;;;;;7.22;3.13;;;24.90;93.80;;;;;;5094424;28;20116;-65
2022/07/18 08:17:44;;;;;;;19.90;3.55;;;24.80;93.50;;;;;;5107475;28;20487;-65
2022/07/18 08:20:11;;;;;;;14.75;3.35;;;25.10;94.40;;;;;;5104064;28;20027;-65
2022/07/18 08:22:52;;;;;;;13.65;3.15;;;25.50;94.00;;;;;;5097231;28;20083;-68
2022/07/18 08:25:19;;;;;;;10.25;3.00;;;25.70;93.50;;;;;;5105019;28;20035;-65
2022/07/18 08:27:45;;;;;;;10.10;3.33;;;26.00;93.00;;;;;;5112832;28;20092;-66
2022/07/18 08:30:10;;;;;;;8.63;2.67;;;26.10;93.20;;;;;;5113436;27;20468;-66
2022/07/18 08:32:36;;;;;;;9.80;2.78;;;26.20;93.30;;;;;;5113649;28;20112;-66
2022/07/18 08:35:03;;;;;;;12.30;3.38;;;26.10;93.10;;;;;;5112483;28;20020;-65
2022/07/18 08:37:29;;;;;;;8.82;2.83;;;26.10;92.60;;;;;;5112939;28;20111;-69
2022/07/18 08:39:55;;;;;;;11.10;2.55;;;26.10;92.40;;;;;;5113824;28;20090;-66
2022/07/18 08:42:25;;;;;;;11.43;2.90;;;26.40;92.10;;;;;;5113106;28;20035;-66
2022/07/18 08:44:54;;;;;;;14.13;2.90;;;26.40;91.80;;;;;;5112792;28;20475;-66
2022/07/18 08:47:20;;;;;;;7.82;2.60;;;26.50;91.70;;;;;;5112970;28;20463;-66
2022/07/18 08:49:47;;;;;;;8.63;2.88;;;26.60;91.80;;;;;;5101628;28;20030;-66
2022/07/18 08:52:14;;;;;;;7.82;2.92;;;26.70;91.60;;;;;;5113061;28;20044;-66
2022/07/18 08:54:41;;;;;;;9.30;2.60;;;26.60;91.30;;;;;;5109891;28;20027;-66
2022/07/18 08:57:07;;;;;;;7.85;2.70;;;27.10;91.50;;;;;;5111428;28;20091;-84
2022/07/18 08:59:32;;;;;;;12.73;2.90;;;27.30;91.60;;;;;;5112885;28;20032;-66
2022/07/18 09:01:58;;;;;;;9.15;2.55;;;27.60;91.30;;;;;;5112637;28;20027;-67
2022/07/18 09:04:37;;;;;;;12.40;3.22;;;27.80;91.00;;;;;;5104316;28;20020;-66
2022/07/18 09:07:04;;;;;;;10.48;2.92;;;27.90;90.70;;;;;;5102428;28;20110;-68
2022/07/18 09:09:31;;;;;;;14.93;3.10;;;27.90;90.70;;;;;;5100710;28;20028;-66
2022/07/18 09:12:00;;;;;;;14.30;2.95;;;27.50;90.70;;;;;;5101351;28;20114;-70
2022/07/18 09:14:43;;;;;;;7.95;2.50;;;27.90;91.30;;;;;;5095051;28;20475;-66
2022/07/18 09:17:19;;;;;;;7.85;2.45;;;28.40;90.50;;;;;;5105551;28;20115;-67
2022/07/18 09:20:07;;;;;;;5.95;2.65;;;28.60;89.70;;;;;;5106532;28;20020;-66
2022/07/18 09:22:36;;;;;;;7.97;2.13;;;28.60;90.10;;;;;;5099642;28;20020;-69
2022/07/18 09:25:13;;;;;;;12.00;2.90;;;28.80;89.10;;;;;;5106247;28;20024;-67
2022/07/18 09:27:41;;;;;;;9.35;2.55;;;29.00;87.20;;;;;;5111368;28;20115;-66
2022/07/18 09:30:26;;;;;;;9.68;2.67;;;29.10;86.50;;;;;;5112450;28;20042;-69
2022/07/18 09:33:15;;;;;;;5.35;2.47;;;29.00;86.50;;;;;;5112426;28;20050;-70
2022/07/18 09:35:50;;;;;;;9.60;3.20;;;28.90;85.90;;;;;;5112085;28;20024;-67
2022/07/18 09:38:23;;;;;;;8.55;2.55;;;29.30;86.30;;;;;;5112224;28;20041;-88
2022/07/18 09:40:54;;;;;;;7.90;2.58;;;29.30;86.20;;;;;;5112489;28;20078;-66
2022/07/18 09:43:22;;;;;;;4.25;2.00;;;29.20;85.40;;;;;;5112455;28;20070;-66
2022/07/18 09:45:55;;;;;;;7.60;2.75;;;29.30;85.60;;;;;;5091955;28;20084;-66
2022/07/18 09:48:26;;;;;;;12.60;3.25;;;29.60;84.00;;;;;;5116339;28;20479;-66
2022/07/18 09:51:03;;;;;;;12.20;2.70;;;29.60;85.10;;;;;;5116421;28;20039;-66
2022/07/18 09:53:34;;;;;;;9.57;2.63;;;29.10;84.70;;;;;;5116006;28;20481;-66
2022/07/18 09:56:03;;;;;;;9.93;2.22;;;29.30;85.20;;;;;;5112330;28;20387;-67
2022/07/18 09:58:31;;;;;;;6.43;2.35;;;29.50;85.30;;;;;;5116399;28;20107;-86
2022/07/18 10:00:59;;;;;;;7.82;2.22;;;29.50;84.50;;;;;;5116323;28;20032;-66
2022/07/18 10:03:25;;;;;;;8.10;3.20;;;29.70;84.50;;;;;;5115369;28;20035;-66
2022/07/18 10:05:53;;;;;;;10.25;2.55;;;30.20;84.10;;;;;;5114886;28;20023;-66
2022/07/18 10:08:30;;;;;;;8.48;2.70;;;30.10;83.70;;;;;;5115379;28;20111;-66
2022/07/18 10:11:01;;;;;;;5.57;2.00;;;30.30;82.70;;;;;;5116798;28;20088;-65
2022/07/18 10:13:29;;;;;;;4.88;2.42;;;30.40;82.60;;;;;;5115562;28;20416;-66
2022/07/18 10:15:55;;;;;;;5.13;2.10;;;30.60;80.90;;;;;;5117068;28;20042;-66
2022/07/18 10:18:23;;;;;;;8.32;2.50;;;30.40;80.90;;;;;;5116589;28;20053;-66
2022/07/18 10:21:12;;;;;;;6.00;2.38;;;30.50;79.90;;;;;;5115379;28;20376;-71
2022/07/18 10:23:38;;;;;;;8.43;2.15;;;31.00;79.90;;;;;;5116336;28;20032;-66
2022/07/18 10:26:25;;;;;;;7.75;2.20;;;30.40;79.90;;;;;;5115113;28;20383;-67
2022/07/18 10:29:00;;;;;;;8.05;2.90;;;30.30;79.40;;;;;;5116541;28;20031;-71
2022/07/18 10:31:31;;;;;;;6.25;2.25;;;30.80;79.20;;;;;;5116436;28;20039;-90
2022/07/18 10:34:06;;;;;;;;;;;30.80;79.50;;;;;;5116682;28;20391;-65
2022/07/18 10:36:33;;;;;;;8.65;2.55;;;30.70;79.30;;;;;;5115890;28;19951;-66
2022/07/18 10:39:07;;;;;;;8.13;2.25;;;31.20;78.80;;;;;;5116019;28;20102;-66
2022/07/18 10:41:42;;;;;;;7.63;2.60;;;31.50;78.10;;;;;;5114753;28;20036;-81
2022/07/18 10:44:24;;;;;;;8.23;2.30;;;31.60;78.40;;;;;;5106028;28;20539;-67
2022/07/18 10:47:08;;;;;;;;;;;31.60;77.50;;;;;;5116409;28;20030;-66
2022/07/18 10:49:57;;;;;;;8.35;2.30;;;31.90;76.90;;;;;;5116086;28;19912;-66
2022/07/18 10:52:26;;;;;;;7.72;2.28;;;31.30;77.70;;;;;;5108918;28;20051;-67
2022/07/18 10:55:04;;;;;;;12.70;2.20;;;30.90;79.50;;;;;;5115680;28;20107;-66
2022/07/18 10:57:30;;;;;;;16.85;3.30;;;31.80;78.70;;;;;;5115733;28;20066;-76
2022/07/18 11:00:00;;;;;;;8.30;2.25;;;31.70;76.40;;;;;;5115546;28;20023;-66
2022/07/18 11:02:34;;;;;;;6.55;1.85;;;31.80;75.80;;;;;;5094521;28;20036;-67
2022/07/18 11:05:00;;;;;;;6.93;2.00;;;31.90;76.00;;;;;;5095228;28;20080;-90
2022/07/18 11:07:27;;;;;;;7.15;1.95;;;31.60;75.80;;;;;;5101549;28;20052;-66
2022/07/18 11:09:52;;;;;;;13.23;2.10;;;32.00;74.80;;;;;;5098593;28;20513;-66
2022/07/18 11:12:26;;;;;;;7.03;2.03;;;32.40;74.50;;;;;;5098893;28;20106;-66
2022/07/18 11:15:07;;;;;;;9.85;2.00;;;32.30;73.70;;;;;;5096312;28;20032;-69
2022/07/18 11:17:51;;;;;;;4.70;1.67;;;32.40;75.00;;;;;;5104750;28;20103;-66
2022/07/18 11:20:38;;;;;;;3.35;1.60;;;32.70;74.80;;;;;;5098137;28;20028;-67
2022/07/18 11:23:23;;;;;;;7.22;2.45;;;32.70;72.90;;;;;;5099501;28;20104;-67
2022/07/18 11:25:57;;;;;;;2.30;1.75;;;32.90;72.80;;;;;;5099742;28;20023;-64
2022/07/18 11:28:25;;;;;;;9.38;2.22;;;32.90;72.60;;;;;;5092411;28;20040;-64
2022/07/18 11:31:05;;;;;;;6.72;2.20;;;32.70;73.50;;;;;;5109780;28;20102;-64
2022/07/18 11:33:34;;;;;;;6.68;1.92;;;33.00;73.70;;;;;;5110863;28;20027;-64
2022/07/18 11:36:08;;;;;;;4.50;1.70;;;33.10;72.90;;;;;;5101611;28;20132;-64
2022/07/18 11:38:36;;;;;;;5.57;2.00;;;32.90;72.20;;;;;;5098390;28;20016;-65
2022/07/18 11:41:03;;;;;;;7.35;1.70;;;33.00;71.80;;;;;;5096540;28;20035;-65
2022/07/18 11:43:29;;;;;;;9.85;2.03;;;32.50;71.70;;;;;;5098975;28;20084;-64
2022/07/18 11:46:07;;;;;;;7.45;2.20;;;33.10;71.10;;;;;;5108037;28;20036;-64
2022/07/18 11:48:34;;;;;;;3.80;1.95;;;33.60;71.00;;;;;;5102285;27;20495;-67
2022/07/18 11:51:01;;;;;;;2.15;1.60;;;33.70;71.40;;;;;;5094505;28;20127;-67
2022/07/18 11:53:28;;;;;;;7.97;1.80;;;33.30;71.00;;;;;;5094404;28;20031;-77
2022/07/18 11:55:54;;;;;;;5.60;1.80;;;33.60;71.50;;;;;;5088188;28;20024;-66
2022/07/18 11:58:21;;;;;;;7.78;2.05;;;33.50;69.40;;;;;;5093705;28;20036;-64
2022/07/18 12:00:48;;;;;;;6.38;1.73;;;33.30;69.90;;;;;;5096589;28;20023;-65
2022/07/18 12:03:19;;;;;;;2.70;1.83;;;33.30;70.10;;;;;;5095975;28;20028;-65
2022/07/18 12:05:53;;;;;;;11.73;1.75;;;33.30;70.50;;;;;;5088289;28;20016;-65
2022/07/18 12:08:28;;;;;;;7.88;1.90;;;33.50;69.60;;;;;;5100506;28;20024;-75
2022/07/18 12:11:07;;;;;;;5.15;1.83;;;33.80;68.80;;;;;;5097499;28;20039;-84
2022/07/18 12:13:50;;;;;;;4.28;2.05;;;34.20;68.30;;;;;;5096672;28;20027;-63
2022/07/18 12:16:36;;;;;;;5.78;1.83;;;34.30;69.90;;;;;;5095428;28;20178;-87
2022/07/18 12:19:12;;;;;;;2.80;1.58;;;34.20;68.40;;;;;;5100131;28;20055;-64
2022/07/18 12:21:51;;;;;;;9.68;1.70;;;34.30;69.00;;;;;;5102057;28;20024;-64
2022/07/18 12:24:23;;;;;;;11.40;1.90;;;34.30;67.80;;;;;;5106090;28;20028;-67
2022/07/18 12:27:06;;;;;;;10.57;2.00;;;34.20;67.60;;;;;;5113736;28;20038;-79
2022/07/18 12:29:32;;;;;;;4.88;1.52;;;34.20;67.40;;;;;;5115390;28;20035;-68
2022/07/18 12:31:58;;;;;;;4.50;1.55;;;34.60;67.20;;;;;;5112926;27;20038;-66
2022/07/18 12:34:23;;;;;;;4.00;1.73;;;34.40;67.10;;;;;;5114123;28;20052;-66
2022/07/18 12:36:53;;;;;;;3.45;1.75;;;34.80;66.10;;;;;;5113910;27;20065;-67
2022/07/18 12:39:33;;;;;;;3.55;1.65;;;34.70;67.00;;;;;;5114178;28;20032;-66
2022/07/18 12:42:00;;;;;;;6.78;1.65;;;35.10;66.50;;;;;;5113960;28;20118;-66
2022/07/18 12:44:27;;;;;;;1.52;1.40;;;35.40;66.20;;;;;;5114583;28;20066;-67
2022/07/18 12:46:54;;;;;;;3.13;1.55;;;35.60;63.30;;;;;;5109452;28;20533;-64
2022/07/18 12:49:20;;;;;;;4.05;1.55;;;34.50;63.90;;;;;;5104943;28;20051;-67
2022/07/18 12:51:46;;;;;;;7.20;2.00;;;35.10;66.00;;;;;;5113664;28;20035;-66